createdAt,value
2023-04-19T00:01:29.500Z,102607.47
2023-04-19T00:03:58.375Z,102605.56
2023-04-19T00:06:30.485Z,102608.38
2023-04-19T00:08:58.816Z,102607.41
2023-04-19T00:11:27.133Z,102604.81
2023-04-19T00:13:55.483Z,102606.31
2023-04-19T00:16:25.454Z,102586.81
2023-04-19T00:18:53.736Z,102600.97
2023-04-19T00:21:22.054Z,102605.22
2023-04-19T00:23:50.356Z,102608.63
2023-04-19T00:26:18.612Z,102591.72
2023-04-19T00:28:50.994Z,102604.97
2023-04-19T00:31:19.320Z,102595.13
2023-04-19T00:33:48.994Z,102590.63
2023-04-19T00:36:17.297Z,102587.00
2023-04-19T00:38:48.513Z,102600.41
2023-04-19T00:41:17.879Z,102595.09
2023-04-19T00:43:46.144Z,102596.88
2023-04-19T00:46:16.106Z,102597.69
2023-04-19T00:48:44.594Z,102589.84
2023-04-19T00:51:15.310Z,102587.25
2023-04-19T00:53:45.805Z,102591.56
2023-04-19T00:56:15.742Z,102591.56
2023-04-19T00:58:44.192Z,102588.25
2023-04-19T01:01:12.507Z,102589.09
2023-04-19T01:03:41.015Z,102577.63
2023-04-19T01:06:09.564Z,102590.00
2023-04-19T01:08:39.678Z,102576.88
2023-04-19T01:11:08.443Z,102578.69
2023-04-19T01:13:38.535Z,102576.84
2023-04-19T01:16:08.543Z,102567.94
2023-04-19T01:18:37.666Z,102571.53
2023-04-19T01:21:07.065Z,102573.16
2023-04-19T01:23:36.894Z,102569.78
2023-04-19T01:26:05.448Z,102576.94
2023-04-19T01:28:34.009Z,102574.97
2023-04-19T01:31:02.358Z,102572.34
2023-04-19T01:33:30.749Z,102561.78
2023-04-19T01:35:59.085Z,102572.16
2023-04-19T01:38:27.619Z,102559.91
2023-04-19T01:40:57.352Z,102552.84
2023-04-19T01:43:26.355Z,102554.47
2023-04-19T01:45:54.627Z,102558.13
2023-04-19T01:48:22.956Z,102553.88
2023-04-19T01:50:51.232Z,102553.94
2023-04-19T01:53:19.571Z,102562.94
2023-04-19T01:55:47.910Z,102542.53
2023-04-19T01:58:17.709Z,102554.19
2023-04-19T02:00:46.594Z,102552.34
2023-04-19T02:03:15.178Z,102548.69
2023-04-19T02:05:44.353Z,102556.59
2023-04-19T02:08:12.620Z,102552.97
2023-04-19T02:10:40.991Z,102557.38
2023-04-19T02:13:09.352Z,102551.16
2023-04-19T02:15:39.914Z,102552.69
2023-04-19T02:18:08.391Z,102519.59
2023-04-19T02:20:36.747Z,102548.16
2023-04-19T02:23:05.526Z,102543.56
2023-04-19T02:25:35.410Z,102550.38
2023-04-19T02:28:03.809Z,102537.84
2023-04-19T02:30:32.132Z,102554.59
2023-04-19T02:33:01.885Z,102550.09
2023-04-19T02:35:30.296Z,102549.28
2023-04-19T02:38:00.365Z,102546.22
2023-04-19T02:40:28.741Z,102541.88
2023-04-19T02:42:59.834Z,102550.66
2023-04-19T02:45:28.161Z,102553.06
2023-04-19T02:47:56.536Z,102540.78
2023-04-19T02:50:28.301Z,102541.03
2023-04-19T02:52:56.589Z,102545.22
2023-04-19T02:55:26.553Z,102541.72
2023-04-19T02:58:04.698Z,102551.50
2023-04-19T03:00:35.779Z,102549.31
2023-04-19T03:03:09.944Z,102546.63
2023-04-19T03:05:39.831Z,102543.28
2023-04-19T03:08:08.250Z,102563.31
2023-04-19T03:10:36.720Z,102543.22
2023-04-19T03:13:05.052Z,102558.41
2023-04-19T03:15:33.428Z,102551.47
2023-04-19T03:18:01.866Z,102548.41
2023-04-19T03:20:31.068Z,102546.75
2023-04-19T03:23:01.129Z,102541.44
2023-04-19T03:25:29.935Z,102548.81
2023-04-19T03:28:09.772Z,102557.84
2023-04-19T03:30:58.082Z,102555.06
2023-04-19T03:33:26.503Z,102550.72
2023-04-19T03:35:55.619Z,102550.94
2023-04-19T03:38:25.888Z,102550.84
2023-04-19T03:40:56.063Z,102556.94
2023-04-19T03:43:25.230Z,102554.16
2023-04-19T03:45:53.590Z,102548.94
2023-04-19T03:48:22.046Z,102541.97
2023-04-19T03:50:50.400Z,102542.13
2023-04-19T03:53:20.673Z,102557.03
2023-04-19T03:55:50.375Z,102554.47
2023-04-19T03:58:18.921Z,102536.72
2023-04-19T04:00:54.085Z,102546.38
2023-04-19T04:03:22.838Z,102539.94
2023-04-19T04:05:51.385Z,102507.16
2023-04-19T04:08:20.084Z,102552.06
2023-04-19T04:10:49.749Z,102557.34
2023-04-19T04:13:18.364Z,102549.38
2023-04-19T04:15:52.473Z,102561.34
2023-04-19T04:18:22.008Z,102557.31
2023-04-19T04:20:51.275Z,102558.56
2023-04-19T04:23:21.767Z,102554.78
2023-04-19T04:26:01.008Z,102556.59
2023-04-19T04:28:40.169Z,102567.53
2023-04-19T04:31:09.909Z,102556.56
2023-04-19T04:33:38.224Z,102572.69
2023-04-19T04:36:12.031Z,102565.63
2023-04-19T04:38:41.508Z,102565.63
2023-04-19T04:41:12.883Z,102564.78
2023-04-19T04:43:41.479Z,102567.66
2023-04-19T04:46:10.674Z,102560.72
2023-04-19T04:48:42.857Z,102567.56
2023-04-19T04:51:11.224Z,102547.69
2023-04-19T04:53:40.940Z,102546.84
2023-04-19T04:56:11.691Z,102520.25
2023-04-19T04:58:40.054Z,102568.50
2023-04-19T05:01:11.165Z,102582.03
2023-04-19T05:03:41.751Z,102576.75
2023-04-19T05:06:14.978Z,102568.81
2023-04-19T05:08:45.276Z,102580.25
2023-04-19T05:11:23.412Z,102578.47
2023-04-19T05:13:51.788Z,102583.00
2023-04-19T05:16:20.269Z,102569.81
2023-04-19T05:18:50.227Z,102578.72
2023-04-19T05:21:18.626Z,102575.38
2023-04-19T05:23:47.206Z,102574.56
2023-04-19T05:26:16.300Z,102573.66
2023-04-19T05:28:47.286Z,102575.50
2023-04-19T05:31:23.258Z,102584.47
2023-04-19T05:34:03.762Z,102577.66
2023-04-19T05:36:32.267Z,102583.78
2023-04-19T05:39:01.287Z,102546.63
2023-04-19T05:41:29.713Z,102584.22
2023-04-19T05:43:59.420Z,102579.97
2023-04-19T05:46:28.291Z,102580.88
2023-04-19T05:48:59.202Z,102560.19
2023-04-19T05:51:30.489Z,102579.13
2023-04-19T05:54:05.089Z,102589.78
2023-04-19T05:56:33.578Z,102595.19
2023-04-19T05:59:03.358Z,102589.34
2023-04-19T06:01:32.101Z,102592.97
2023-04-19T06:04:00.507Z,102599.28
2023-04-19T06:06:29.504Z,102592.38
2023-04-19T06:08:58.003Z,102598.78
2023-04-19T06:11:35.152Z,102600.59
2023-04-19T06:14:08.737Z,102600.63
2023-04-19T06:16:37.496Z,102598.09
2023-04-19T06:19:06.370Z,102609.72
2023-04-19T06:21:34.793Z,102600.84
2023-04-19T06:24:03.583Z,102594.44
2023-04-19T06:26:31.935Z,102610.47
2023-04-19T06:29:00.253Z,102608.75
2023-04-19T06:31:30.206Z,102605.34
2023-04-19T06:33:58.580Z,102607.84
2023-04-19T06:36:26.934Z,102588.31
2023-04-19T06:38:55.544Z,102607.75
2023-04-19T06:41:24.079Z,102591.66
2023-04-19T06:43:52.370Z,102600.69
2023-04-19T06:46:20.792Z,102606.75
2023-04-19T06:48:50.795Z,102590.88
2023-04-19T06:51:19.187Z,102599.44
2023-04-19T06:53:47.456Z,102608.88
2023-04-19T06:56:15.835Z,102607.81
2023-04-19T06:58:44.297Z,102626.75
2023-04-19T07:01:13.153Z,102596.06
2023-04-19T07:03:41.936Z,102598.78
2023-04-19T07:06:11.684Z,102611.22
2023-04-19T07:08:49.192Z,102611.34
2023-04-19T07:11:19.779Z,102615.97
2023-04-19T07:13:49.403Z,102608.88
2023-04-19T07:16:17.738Z,102610.00
2023-04-19T07:18:46.104Z,102617.16
2023-04-19T07:21:16.312Z,102615.22
2023-04-19T07:23:44.756Z,102589.72
2023-04-19T07:26:14.960Z,102610.03
2023-04-19T07:28:43.487Z,102527.16
2023-04-19T07:31:17.264Z,102604.06
2023-04-19T07:33:47.010Z,102615.91
2023-04-19T07:36:16.776Z,102608.88
2023-04-19T07:38:45.587Z,102602.66
2023-04-19T07:41:14.000Z,102601.78
2023-04-19T07:43:42.433Z,102601.84
2023-04-19T07:46:12.087Z,102604.91
2023-04-19T07:48:40.958Z,102605.53
2023-04-19T07:51:13.753Z,102592.94
2023-04-19T07:53:44.825Z,102592.22
2023-04-19T07:56:14.355Z,102605.81
2023-04-19T07:58:43.906Z,102586.13
2023-04-19T08:01:12.948Z,102580.81
2023-04-19T08:03:42.235Z,102606.06
2023-04-19T08:06:10.764Z,102590.03
2023-04-19T08:08:39.248Z,102585.03
2023-04-19T08:11:08.833Z,102600.53
2023-04-19T08:13:37.156Z,102588.09
2023-04-19T08:18:37.251Z,102588.44
2023-04-19T08:21:06.285Z,102581.31
2023-04-19T08:23:47.360Z,102587.66
2023-04-19T08:26:18.112Z,102582.44
2023-04-19T08:28:46.477Z,102584.34
2023-04-19T08:31:14.810Z,102580.81
2023-04-19T08:33:43.841Z,102587.06
2023-04-19T08:36:15.233Z,102567.47
2023-04-19T08:38:51.833Z,102584.41
2023-04-19T08:41:30.102Z,102565.78
2023-04-19T08:44:00.196Z,102579.88
2023-04-19T08:46:29.335Z,102586.28
2023-04-19T08:48:58.382Z,102576.44
2023-04-19T08:51:29.266Z,102569.38
2023-04-19T08:53:57.870Z,102577.22
2023-04-19T08:56:35.324Z,102586.16
2023-04-19T09:01:41.559Z,102588.09
2023-04-19T09:04:34.613Z,102583.66
2023-04-19T09:07:00.604Z,102572.13
2023-04-19T09:12:04.560Z,102567.66
2023-04-19T09:14:32.957Z,102580.13
2023-04-19T09:17:15.770Z,102568.53
2023-04-19T09:19:48.146Z,102576.56
2023-04-19T09:22:16.940Z,102549.88
2023-04-19T09:27:27.271Z,102565.88
2023-04-19T09:29:56.297Z,102564.09
2023-04-19T09:32:25.467Z,102579.22
2023-04-19T09:34:56.236Z,102583.66
2023-04-19T09:37:41.416Z,102573.00
2023-04-19T09:40:27.788Z,102563.22
2023-04-19T09:45:30.874Z,102557.00
2023-04-19T09:48:05.076Z,102550.72
2023-04-19T09:50:38.863Z,102553.38
2023-04-19T09:53:20.076Z,102567.59
2023-04-19T09:55:59.710Z,102554.22
2023-04-19T10:01:13.961Z,102563.94
2023-04-19T10:03:47.039Z,102562.22
2023-04-19T10:08:51.897Z,102556.75
2023-04-19T10:11:22.991Z,102538.94
2023-04-19T10:13:58.762Z,102532.75
2023-04-19T10:16:28.051Z,102544.53
2023-04-19T10:18:57.509Z,102544.50
2023-04-19T10:21:28.593Z,102539.16
2023-04-19T10:23:57.856Z,102528.41
2023-04-19T10:26:26.434Z,102534.56
2023-04-19T10:28:58.188Z,102536.34
2023-04-19T10:31:28.018Z,102530.19
2023-04-19T10:33:57.765Z,102539.03
2023-04-19T10:36:29.879Z,102540.03
2023-04-19T10:38:58.435Z,102538.25
2023-04-19T10:41:58.545Z,102527.59
2023-04-19T10:44:28.245Z,102530.25
2023-04-19T10:46:56.593Z,102548.06
2023-04-19T10:49:25.261Z,102515.09
2023-04-19T10:51:54.922Z,102523.13
2023-04-19T10:54:34.478Z,102530.22
2023-04-19T10:57:05.521Z,102537.38
2023-04-19T10:59:37.267Z,102543.56
2023-04-19T11:02:28.266Z,102528.41
2023-04-19T11:05:02.680Z,102523.91
2023-04-19T11:07:39.988Z,102523.88
2023-04-19T11:10:10.279Z,102525.56
2023-04-19T11:12:38.924Z,102512.16
2023-04-19T11:15:10.608Z,102522.81
2023-04-19T11:17:39.679Z,102510.53
2023-04-19T11:20:12.086Z,102517.66
2023-04-19T11:22:42.053Z,102500.03
2023-04-19T11:25:13.146Z,102481.28
2023-04-19T11:27:43.128Z,102486.69
2023-04-19T11:30:14.248Z,102506.22
2023-04-19T11:32:50.870Z,102507.13
2023-04-19T11:35:23.375Z,102509.81
2023-04-19T11:37:52.783Z,102503.56
2023-04-19T11:40:22.936Z,102502.69
2023-04-19T11:42:56.816Z,102501.78
2023-04-19T11:45:32.313Z,102495.59
2023-04-19T11:48:03.654Z,102497.19
2023-04-19T11:50:36.217Z,102484.72
2023-04-19T11:53:16.520Z,102494.72
2023-04-19T11:55:47.167Z,102463.56
2023-04-19T11:58:26.739Z,102485.78
2023-04-19T12:00:55.704Z,102465.34
2023-04-19T12:03:26.469Z,102491.09
2023-04-19T12:05:58.424Z,102454.59
2023-04-19T12:08:35.180Z,102467.94
2023-04-19T12:11:06.358Z,102456.44
2023-04-19T12:13:36.393Z,102460.88
2023-04-19T12:16:05.476Z,102444.88
2023-04-19T12:18:49.841Z,102465.25
2023-04-19T12:21:31.638Z,102461.81
2023-04-19T12:24:01.719Z,102467.13
2023-04-19T12:26:31.097Z,102473.34
2023-04-19T12:29:02.585Z,102448.44
2023-04-19T12:31:33.730Z,102386.06
2023-04-19T12:34:02.228Z,102462.53
2023-04-19T12:36:31.917Z,102451.78
2023-04-19T12:39:00.447Z,102447.31
2023-04-19T12:41:28.776Z,102439.25
2023-04-19T12:43:57.096Z,102460.66
2023-04-19T12:46:25.474Z,102423.28
2023-04-19T12:48:53.926Z,102439.28
2023-04-19T12:51:22.212Z,102433.22
2023-04-19T12:53:53.578Z,102440.28
2023-04-19T12:56:22.199Z,102433.94
2023-04-19T12:58:50.547Z,102440.28
2023-04-19T13:01:18.996Z,102442.13
2023-04-19T13:03:47.644Z,102438.59
2023-04-19T13:06:17.270Z,102402.06
2023-04-19T13:08:47.737Z,102426.22
2023-04-19T13:11:23.127Z,102435.88
2023-04-19T13:13:53.544Z,102423.34
2023-04-19T13:16:22.559Z,102409.91
2023-04-19T13:18:52.661Z,102396.47
2023-04-19T13:21:21.306Z,102410.66
2023-04-19T13:23:49.613Z,102397.59
2023-04-19T13:26:19.503Z,102397.47
2023-04-19T13:28:47.845Z,102393.81
2023-04-19T13:31:16.402Z,102404.44
2023-04-19T13:33:44.880Z,102373.44
2023-04-19T13:36:13.181Z,102397.31
2023-04-19T13:38:41.572Z,102381.22
2023-04-19T13:41:10.000Z,102392.63
2023-04-19T13:43:39.921Z,102350.03
2023-04-19T13:46:08.392Z,102385.41
2023-04-19T13:48:36.940Z,102368.78
2023-04-19T13:51:05.664Z,102374.28
2023-04-19T13:53:34.068Z,102372.50
2023-04-19T13:56:02.372Z,102371.50
2023-04-19T13:58:30.792Z,102364.41
2023-04-19T14:01:00.706Z,102366.00
2023-04-19T14:03:29.233Z,102374.78
2023-04-19T14:05:57.767Z,102365.16
2023-04-19T14:08:26.262Z,102362.47
2023-04-19T14:10:55.023Z,102359.63
2023-04-19T14:13:23.379Z,102351.69
2023-04-19T14:15:51.721Z,102343.59
2023-04-19T14:18:21.568Z,102353.41
2023-04-19T14:20:49.966Z,102331.00
2023-04-19T14:23:18.291Z,102343.50
2023-04-19T14:25:46.616Z,102347.97
2023-04-19T14:28:14.969Z,102329.22
2023-04-19T14:30:43.289Z,102322.97
2023-04-19T14:33:13.334Z,102338.97
2023-04-19T14:35:44.334Z,102325.66
2023-04-19T14:38:12.796Z,102317.63
2023-04-19T14:40:41.095Z,102325.72
2023-04-19T14:43:09.402Z,102322.22
2023-04-19T14:45:37.684Z,102305.69
2023-04-19T14:48:06.814Z,102312.81
2023-04-19T14:50:35.158Z,102308.22
2023-04-19T14:53:04.937Z,102285.94
2023-04-19T14:55:33.394Z,102297.47
2023-04-19T14:58:01.713Z,102286.81
2023-04-19T15:00:30.242Z,102302.78
2023-04-19T15:02:58.697Z,102306.09
2023-04-19T15:05:28.628Z,102302.72
2023-04-19T15:07:57.265Z,102289.72
2023-04-19T15:10:27.068Z,102287.75
2023-04-19T15:12:56.585Z,102279.66
2023-04-19T15:15:24.966Z,102251.22
2023-04-19T15:17:53.379Z,102271.53
2023-04-19T15:20:21.942Z,102273.63
2023-04-19T15:22:50.307Z,102268.06
2023-04-19T15:25:19.037Z,102271.66
2023-04-19T15:27:49.647Z,102267.94
2023-04-19T15:30:17.880Z,102273.44
2023-04-19T15:32:46.280Z,102252.94
2023-04-19T15:35:14.648Z,102252.88
2023-04-19T15:37:43.865Z,102258.13
2023-04-19T15:40:14.433Z,102246.66
2023-04-19T15:42:42.804Z,102262.75
2023-04-19T15:45:12.721Z,102251.97
2023-04-19T15:47:41.153Z,102234.34
2023-04-19T15:50:10.533Z,102266.25
2023-04-19T15:52:38.884Z,102262.69
2023-04-19T15:55:08.240Z,102268.09
2023-04-19T15:57:36.950Z,102265.38
2023-04-19T16:00:09.365Z,102249.41
2023-04-19T16:02:42.263Z,102265.28
2023-04-19T16:05:11.258Z,102259.19
2023-04-19T16:07:39.501Z,102277.09
2023-04-19T16:10:08.923Z,102265.47
2023-04-19T16:12:37.299Z,102263.69
2023-04-19T16:15:06.741Z,102252.13
2023-04-19T16:17:35.182Z,102254.59
2023-04-19T16:20:05.613Z,102247.69
2023-04-19T16:22:34.065Z,102251.22
2023-04-19T16:25:02.387Z,102253.00
2023-04-19T16:27:31.279Z,102247.69
2023-04-19T16:29:59.643Z,102247.63
2023-04-19T16:32:28.092Z,102237.91
2023-04-19T16:34:56.454Z,102147.47
2023-04-19T16:37:26.194Z,102240.72
2023-04-19T16:39:54.598Z,102238.03
2023-04-19T16:42:22.923Z,102229.09
2023-04-19T16:44:51.390Z,102228.28
2023-04-19T16:47:19.639Z,102231.81
2023-04-19T16:49:49.370Z,102234.44
2023-04-19T16:52:18.063Z,102230.06
2023-04-19T16:54:47.655Z,102231.06
2023-04-19T16:57:16.238Z,102230.13
2023-04-19T16:59:44.538Z,102229.19
2023-04-19T17:02:13.070Z,102232.78
2023-04-19T17:04:41.781Z,102227.47
2023-04-19T17:07:10.904Z,102214.19
2023-04-19T17:09:39.281Z,102224.00
2023-04-19T17:12:09.410Z,102194.75
2023-04-19T17:14:38.179Z,102201.88
2023-04-19T17:17:07.027Z,102220.47
2023-04-19T17:19:35.422Z,102215.16
2023-04-19T17:22:05.426Z,102221.41
2023-04-19T17:24:34.403Z,102194.78
2023-04-19T17:27:02.862Z,102209.94
2023-04-19T17:29:32.592Z,102200.16
2023-04-19T17:32:01.800Z,102203.78
2023-04-19T17:34:30.212Z,102212.69
2023-04-19T17:36:59.444Z,102194.09
2023-04-19T17:39:28.900Z,102194.97
2023-04-19T17:41:57.519Z,102211.88
2023-04-19T17:44:26.170Z,102183.47
2023-04-19T17:46:55.926Z,102197.72
2023-04-19T17:49:25.046Z,102208.34
2023-04-19T17:51:53.358Z,102217.28
2023-04-19T17:54:21.725Z,102210.19
2023-04-19T17:56:50.274Z,102196.84
2023-04-19T17:59:18.679Z,102204.91
2023-04-19T18:01:47.223Z,102190.66
2023-04-19T18:04:20.054Z,102196.88
2023-04-19T18:06:48.676Z,102219.09
2023-04-19T18:09:18.095Z,102178.28
2023-04-19T18:11:47.679Z,102207.56
2023-04-19T18:14:16.288Z,102215.53
2023-04-19T18:16:44.903Z,102212.91
2023-04-19T18:19:13.175Z,102212.91
2023-04-19T18:21:43.055Z,102221.81
2023-04-19T18:24:11.451Z,102218.25
2023-04-19T18:26:41.377Z,102215.63
2023-04-19T18:29:09.939Z,102223.59
2023-04-19T18:31:38.366Z,102228.94
2023-04-19T18:34:06.717Z,102231.59
2023-04-19T18:36:35.150Z,102213.84
2023-04-19T18:39:05.053Z,102201.38
2023-04-19T18:41:33.596Z,102234.25
2023-04-19T18:46:33.175Z,102255.56
2023-04-19T18:49:01.672Z,102235.13
2023-04-19T18:51:29.982Z,102244.88
2023-04-19T18:53:58.331Z,102251.09
2023-04-19T18:57:04.492Z,102173.78
2023-04-19T18:59:16.863Z,102248.41
2023-04-19T19:01:45.952Z,102266.16
2023-04-19T19:04:43.059Z,102239.53
2023-04-19T19:07:22.817Z,102249.28
2023-04-19T19:10:01.347Z,102256.31
2023-04-19T19:12:32.181Z,102241.22
2023-04-19T19:15:00.605Z,102262.50
2023-04-19T19:17:29.219Z,102258.91
2023-04-19T19:19:57.603Z,102256.22
2023-04-19T19:22:28.866Z,102258.91
2023-04-19T19:24:57.697Z,102265.97
2023-04-19T19:27:26.076Z,102257.06
2023-04-19T19:29:55.986Z,102257.09
2023-04-19T19:32:24.405Z,102249.94
2023-04-19T19:34:56.541Z,102257.06
2023-04-19T19:37:30.334Z,102250.81
2023-04-19T19:40:03.666Z,102265.88
2023-04-19T19:42:32.853Z,102254.31
2023-04-19T19:45:03.701Z,102260.53
2023-04-19T19:47:35.313Z,102264.97
2023-04-19T19:50:46.657Z,102262.31
2023-04-19T19:52:53.727Z,102202.72
2023-04-19T19:55:22.113Z,102264.03
2023-04-19T20:00:43.980Z,102273.75
2023-04-19T20:03:12.849Z,102275.47
2023-04-19T20:05:41.738Z,102282.66
2023-04-19T20:08:12.620Z,102279.06
2023-04-19T20:10:43.591Z,102278.19
2023-04-19T20:13:12.972Z,102276.38
2023-04-19T20:15:45.394Z,102279.88
2023-04-19T20:18:14.585Z,102288.75
2023-04-19T20:20:43.165Z,102287.00
2023-04-19T20:23:11.524Z,102272.75
2023-04-19T20:25:39.815Z,102285.22
2023-04-19T20:28:09.399Z,102173.03
2023-04-19T20:30:37.833Z,102293.06
2023-04-19T20:33:07.669Z,102283.25
2023-04-19T20:35:36.502Z,102297.53
2023-04-19T20:38:07.730Z,102293.97
2023-04-19T20:40:36.308Z,102292.22
2023-04-19T20:43:04.653Z,102295.72
2023-04-19T20:45:33.107Z,102293.97
2023-04-19T20:48:04.838Z,102282.53
2023-04-19T20:50:35.273Z,102293.03
2023-04-19T20:53:03.846Z,102303.69
2023-04-19T20:55:32.240Z,102297.56
2023-04-19T20:58:00.704Z,102289.56
2023-04-19T21:00:29.133Z,102301.94
2023-04-19T21:02:57.665Z,102298.31
2023-04-19T21:05:26.424Z,102291.22
2023-04-19T21:07:56.273Z,102275.06
2023-04-19T21:10:24.665Z,102302.69
2023-04-19T21:12:52.968Z,102295.56
2023-04-19T21:15:21.619Z,102298.16
2023-04-19T21:17:49.995Z,102313.09
2023-04-19T21:20:18.579Z,102290.75
2023-04-19T21:22:47.874Z,102296.00
2023-04-19T21:25:17.863Z,102287.13
2023-04-19T21:27:46.306Z,102298.69
2023-04-19T21:30:15.388Z,102302.13
2023-04-19T21:32:43.848Z,102298.56
2023-04-19T21:35:12.354Z,102299.44
2023-04-19T21:37:40.711Z,102302.06
2023-04-19T21:40:09.980Z,102310.09
2023-04-19T21:42:39.665Z,102309.25
2023-04-19T21:45:09.676Z,102308.38
2023-04-19T21:47:38.025Z,102303.03
2023-04-19T21:50:07.968Z,102308.38
2023-04-19T21:52:36.392Z,102308.34
2023-04-19T21:55:05.350Z,102300.25
2023-04-19T21:57:33.862Z,102310.03
2023-04-19T22:00:04.627Z,102307.44
2023-04-19T22:02:35.494Z,102310.88
2023-04-19T22:05:04.251Z,102314.50
2023-04-19T22:07:32.544Z,102311.78
2023-04-19T22:10:02.145Z,102316.91
2023-04-19T22:12:30.931Z,102318.59
2023-04-19T22:14:59.315Z,102316.91
2023-04-19T22:17:29.565Z,102308.06
2023-04-19T22:19:59.180Z,102312.59
2023-04-19T22:22:27.656Z,102310.81
2023-04-19T22:24:58.128Z,102310.03
2023-04-19T22:27:26.592Z,102313.44
2023-04-19T22:29:55.056Z,102302.75
2023-04-19T22:32:23.608Z,102314.28
2023-04-19T22:34:53.469Z,102305.34
2023-04-19T22:37:21.809Z,102307.88
2023-04-19T22:39:50.260Z,102311.47
2023-04-19T22:42:18.669Z,102306.16
2023-04-19T22:44:46.972Z,102303.56
2023-04-19T22:47:15.646Z,102300.06
2023-04-19T22:49:43.899Z,102292.94
2023-04-19T22:52:14.630Z,102300.03
2023-04-19T22:54:43.198Z,102292.88
2023-04-19T22:57:11.928Z,102300.88
2023-04-19T22:59:40.603Z,102299.94
2023-04-19T23:02:09.059Z,102285.69
2023-04-19T23:04:38.037Z,102287.41
2023-04-19T23:07:07.004Z,102296.19
2023-04-19T23:09:39.087Z,102290.72
2023-04-19T23:12:08.497Z,102258.63
2023-04-19T23:14:38.491Z,102280.19
2023-04-19T23:17:07.361Z,102279.19
2023-04-19T23:19:36.594Z,102266.69
2023-04-19T23:22:04.997Z,102276.47
2023-04-19T23:24:33.345Z,102282.66
2023-04-19T23:27:03.428Z,102269.34
2023-04-19T23:29:31.908Z,102278.28
2023-04-19T23:32:01.576Z,102282.56
2023-04-19T23:34:29.937Z,102274.56
2023-04-19T23:36:58.321Z,102278.09
2023-04-19T23:39:26.899Z,102269.03
2023-04-19T23:41:55.219Z,102266.47
2023-04-19T23:44:24.890Z,102254.94
2023-04-19T23:46:53.282Z,102261.31
2023-04-19T23:49:21.669Z,102254.03
2023-04-19T23:51:50.403Z,102253.19
2023-04-19T23:54:21.265Z,102259.41
2023-04-19T23:56:50.664Z,102258.50
2023-04-19T23:59:19.905Z,102255.78
